Hauptseite
METAR-TAF:

METAR-TAF

Flughäfen :

Militärflugplatz Alpnach

Alpnach, Schweiz

Breite: 46-56-19N, Länge: 8-17-03E, Höhe: 440 m

Beobachtung

Neuester Wetterbericht von vor 27 Minuten, um 04:20 UTC
Wind 3 kt aus Süd
Temperatur -1°C
Luftfeuchtigkeit 86%
Luftdruck 1028 hPa
Sichtweite 10 km oder mehr

METAR: LSMA 210420Z AUTO 18003KT 9999NDV NCD M01/M03 Q1028 RMK

Zeit: 05:47 (04:47 UTC)


TAF: fehlend

Wetterbeobachtungen und Prognosen von mehr als 4000 Flughäfen (METAR und TAF Bericht).

Die verfügbaren Stationen werden durch gelbe und rote Markierungen auf der Karte dargestellt.

Führen Sie die Maus auf sie, um den Namen der Station zu sehen.

Darauf klicken, um die Beobachtung von Wetterbeobachtungen und Prognosen zu sehen.

Um die Karte zu ändern : klicken Sie auf den grünen Tasten mit einem schwarzen Kreuz Zum Vergrößern, auf den grünen Button mit einem Gedankenstrich zu verkleinern, oder auf die grünen Pfeile für benachbarte Karten.


METAR-TAF: